createdAt,value
2018-08-11T00:00:39.810Z,1016.94
2018-08-11T00:01:39.806Z,1016.89
2018-08-11T00:02:39.811Z,1016.87
2018-08-11T00:03:39.814Z,1016.87
2018-08-11T00:04:39.812Z,1016.92
2018-08-11T00:05:39.816Z,1016.93
2018-08-11T00:06:39.821Z,1016.88
2018-08-11T00:07:39.820Z,1016.92
2018-08-11T00:08:39.815Z,1016.88
2018-08-11T00:09:39.812Z,1016.90
2018-08-11T00:10:39.823Z,1016.90
2018-08-11T00:11:39.820Z,1016.85
2018-08-11T00:12:39.815Z,1016.87
2018-08-11T00:13:39.820Z,1016.87
2018-08-11T00:14:39.814Z,1016.88
2018-08-11T00:15:39.813Z,1016.91
2018-08-11T00:16:39.813Z,1016.87
2018-08-11T00:17:39.821Z,1016.84
2018-08-11T00:18:39.831Z,1016.87
2018-08-11T00:19:39.819Z,1016.85
2018-08-11T00:20:39.826Z,1016.86
2018-08-11T00:21:39.830Z,1016.81
2018-08-11T00:22:39.829Z,1016.86
2018-08-11T00:23:39.821Z,1016.78
2018-08-11T00:24:39.819Z,1016.82
2018-08-11T00:25:39.824Z,1016.81
2018-08-11T00:26:39.822Z,1016.78
2018-08-11T00:27:39.823Z,1016.77
2018-08-11T00:28:39.827Z,1016.77
2018-08-11T00:29:39.828Z,1016.76
2018-08-11T00:30:39.828Z,1016.75
2018-08-11T00:31:39.830Z,1016.74
2018-08-11T00:32:39.826Z,1016.75
2018-08-11T00:33:39.839Z,1016.72
2018-08-11T00:34:39.830Z,1016.73
2018-08-11T00:35:39.826Z,1016.72
2018-08-11T00:36:39.828Z,1016.68
2018-08-11T00:37:39.826Z,1016.67
2018-08-11T00:38:39.831Z,1016.65
2018-08-11T00:39:39.831Z,1016.65
2018-08-11T00:40:39.834Z,1016.65
2018-08-11T00:41:39.836Z,1016.64
2018-08-11T00:42:39.832Z,1016.62
2018-08-11T00:43:39.835Z,1016.63
2018-08-11T00:44:39.885Z,1016.58
2018-08-11T00:45:39.840Z,1016.56
2018-08-11T00:46:39.844Z,1016.58
2018-08-11T00:47:39.839Z,1016.56
2018-08-11T00:48:39.840Z,1016.54
2018-08-11T00:49:39.845Z,1016.52
2018-08-11T00:50:39.836Z,1016.51
2018-08-11T00:51:39.842Z,1016.51
2018-08-11T00:52:39.842Z,1016.49
2018-08-11T00:53:39.844Z,1016.50
2018-08-11T00:54:39.847Z,1016.50
2018-08-11T00:55:39.891Z,1016.47
2018-08-11T00:56:39.853Z,1016.49
2018-08-11T00:57:39.847Z,1016.48
2018-08-11T00:58:39.846Z,1016.52
2018-08-11T00:59:39.862Z,1016.51
2018-08-11T01:00:39.848Z,1016.48
2018-08-11T01:01:39.849Z,1016.47
2018-08-11T01:02:39.851Z,1016.43
2018-08-11T01:03:39.848Z,1016.43
2018-08-11T01:04:39.849Z,1016.44
2018-08-11T01:05:39.848Z,1016.40
2018-08-11T01:06:39.852Z,1016.38
2018-08-11T01:07:39.855Z,1016.34
2018-08-11T01:08:39.859Z,1016.32
2018-08-11T01:09:39.857Z,1016.30
2018-08-11T01:10:39.862Z,1016.32
2018-08-11T01:11:39.862Z,1016.32
2018-08-11T01:12:39.858Z,1016.32
2018-08-11T01:13:39.864Z,1016.30
2018-08-11T01:14:39.865Z,1016.30
2018-08-11T01:15:39.863Z,1016.29
2018-08-11T01:16:39.860Z,1016.28
2018-08-11T01:17:39.866Z,1016.27
2018-08-11T01:18:39.865Z,1016.29
2018-08-11T01:19:39.866Z,1016.25
2018-08-11T01:20:39.870Z,1016.26
2018-08-11T01:21:39.870Z,1016.26
2018-08-11T01:22:39.875Z,1016.27
2018-08-11T01:23:39.868Z,1016.29
2018-08-11T01:24:39.869Z,1016.26
2018-08-11T01:25:39.872Z,1016.26
2018-08-11T01:26:39.871Z,1016.25
2018-08-11T01:27:39.872Z,1016.27
2018-08-11T01:28:39.877Z,1016.25
2018-08-11T01:29:39.873Z,1016.27
2018-08-11T01:30:39.875Z,1016.26
2018-08-11T01:31:39.873Z,1016.21
2018-08-11T01:32:39.877Z,1016.22
2018-08-11T01:33:39.878Z,1016.25
2018-08-11T01:34:39.880Z,1016.23
2018-08-11T01:35:39.881Z,1016.22
2018-08-11T01:36:39.880Z,1016.23
2018-08-11T01:37:39.884Z,1016.20
2018-08-11T01:38:39.883Z,1016.21
2018-08-11T01:39:39.887Z,1016.15
2018-08-11T01:40:39.883Z,1016.15
2018-08-11T01:41:39.890Z,1016.14
2018-08-11T01:42:39.889Z,1016.17
2018-08-11T01:43:39.890Z,1016.16
2018-08-11T01:44:39.888Z,1016.11
2018-08-11T01:45:39.890Z,1016.12
2018-08-11T01:46:39.892Z,1016.10
2018-08-11T01:47:39.901Z,1016.08
2018-08-11T01:48:39.891Z,1016.08
2018-08-11T01:49:39.892Z,1016.04
2018-08-11T01:50:39.894Z,1016.02
2018-08-11T01:51:39.895Z,1016.02
2018-08-11T01:52:39.893Z,1016.01
2018-08-11T01:53:39.894Z,1016.00
2018-08-11T01:54:39.899Z,1016.03
2018-08-11T01:55:39.902Z,1015.98
2018-08-11T01:56:39.897Z,1015.99
2018-08-11T01:57:39.899Z,1015.97
2018-08-11T01:58:39.901Z,1015.97
2018-08-11T01:59:39.909Z,1015.96
2018-08-11T02:00:39.902Z,1015.94
2018-08-11T02:01:39.907Z,1015.98
2018-08-11T02:02:39.915Z,1016.02
2018-08-11T02:03:39.914Z,1016.01
2018-08-11T02:04:39.906Z,1015.98
2018-08-11T02:05:39.905Z,1015.93
2018-08-11T02:06:39.910Z,1015.92
2018-08-11T02:07:39.911Z,1015.89
2018-08-11T02:08:39.907Z,1015.92
2018-08-11T02:09:39.912Z,1015.89
2018-08-11T02:10:39.912Z,1015.88
2018-08-11T02:11:39.914Z,1015.83
2018-08-11T02:12:39.914Z,1015.84
2018-08-11T02:13:39.919Z,1015.81
2018-08-11T02:14:39.919Z,1015.83
2018-08-11T02:15:39.917Z,1015.80
2018-08-11T02:16:39.919Z,1015.82
2018-08-11T02:17:39.936Z,1015.84
2018-08-11T02:18:39.914Z,1015.78
2018-08-11T02:19:39.916Z,1015.78
2018-08-11T02:20:39.920Z,1015.78
2018-08-11T02:21:39.920Z,1015.76
2018-08-11T02:22:39.926Z,1015.73
2018-08-11T02:23:39.920Z,1015.73
2018-08-11T02:24:39.979Z,1015.73
2018-08-11T02:25:39.926Z,1015.70
2018-08-11T02:26:39.932Z,1015.65
2018-08-11T02:27:39.969Z,1015.67
2018-08-11T02:28:39.927Z,1015.61
2018-08-11T02:29:39.937Z,1015.60
2018-08-11T02:30:39.930Z,1015.60
2018-08-11T02:31:39.928Z,1015.57
2018-08-11T02:32:39.932Z,1015.53
2018-08-11T02:33:39.932Z,1015.51
2018-08-11T02:34:39.930Z,1015.55
2018-08-11T02:35:39.937Z,1015.51
2018-08-11T02:36:39.942Z,1015.50
2018-08-11T02:37:39.934Z,1015.53
2018-08-11T02:38:39.936Z,1015.52
2018-08-11T02:39:39.942Z,1015.52
2018-08-11T02:40:39.944Z,1015.52
2018-08-11T02:41:39.938Z,1015.48
2018-08-11T02:42:39.939Z,1015.51
2018-08-11T02:43:39.945Z,1015.47
2018-08-11T02:44:39.938Z,1015.48
2018-08-11T02:45:39.938Z,1015.46
2018-08-11T02:46:39.938Z,1015.48
2018-08-11T02:47:39.945Z,1015.44
2018-08-11T02:48:39.941Z,1015.47
2018-08-11T02:49:39.943Z,1015.48
2018-08-11T02:50:39.944Z,1015.44
2018-08-11T02:51:39.945Z,1015.44
2018-08-11T02:52:39.944Z,1015.44
2018-08-11T02:53:39.945Z,1015.40
2018-08-11T02:54:39.947Z,1015.40
2018-08-11T02:55:39.949Z,1015.39
2018-08-11T02:56:39.948Z,1015.37
2018-08-11T02:57:39.951Z,1015.37
2018-08-11T02:58:39.952Z,1015.39
2018-08-11T02:59:39.959Z,1015.36
2018-08-11T03:00:39.954Z,1015.36
2018-08-11T03:01:39.950Z,1015.39
2018-08-11T03:02:39.957Z,1015.37
2018-08-11T03:03:39.957Z,1015.33
2018-08-11T03:04:39.952Z,1015.30
2018-08-11T03:05:39.954Z,1015.30
2018-08-11T03:06:39.954Z,1015.29
2018-08-11T03:07:39.953Z,1015.27
2018-08-11T03:08:39.957Z,1015.27
2018-08-11T03:09:39.956Z,1015.24
2018-08-11T03:10:39.958Z,1015.26
2018-08-11T03:11:39.973Z,1015.21
2018-08-11T03:12:39.954Z,1015.25
2018-08-11T03:13:39.959Z,1015.24
2018-08-11T03:14:39.962Z,1015.23
2018-08-11T03:15:39.962Z,1015.25
2018-08-11T03:16:39.961Z,1015.25
2018-08-11T03:17:39.965Z,1015.23
2018-08-11T03:18:39.964Z,1015.24
2018-08-11T03:19:39.965Z,1015.20
2018-08-11T03:20:39.963Z,1015.21
2018-08-11T03:21:39.967Z,1015.19
2018-08-11T03:22:39.965Z,1015.19
2018-08-11T03:23:39.967Z,1015.20
2018-08-11T03:24:39.969Z,1015.15
2018-08-11T03:25:39.966Z,1015.16
2018-08-11T03:26:39.971Z,1015.16
2018-08-11T03:27:39.975Z,1015.17
2018-08-11T03:28:39.969Z,1015.17
2018-08-11T03:29:39.983Z,1015.15
2018-08-11T03:30:39.972Z,1015.19
2018-08-11T03:31:39.976Z,1015.14
2018-08-11T03:32:39.975Z,1015.16
2018-08-11T03:33:39.970Z,1015.17
2018-08-11T03:34:39.973Z,1015.16
2018-08-11T03:35:39.975Z,1015.14
2018-08-11T03:36:39.976Z,1015.13
2018-08-11T03:37:39.976Z,1015.10
2018-08-11T03:38:39.977Z,1015.09
2018-08-11T03:39:39.981Z,1015.09
2018-08-11T03:40:39.981Z,1015.08
2018-08-11T03:41:39.979Z,1015.11
2018-08-11T03:42:39.981Z,1015.07
2018-08-11T03:43:39.982Z,1015.06
2018-08-11T03:44:39.983Z,1015.05
2018-08-11T03:45:39.981Z,1015.05
2018-08-11T03:46:39.977Z,1015.06
2018-08-11T03:47:39.983Z,1015.09
2018-08-11T03:48:39.984Z,1015.07
2018-08-11T03:49:39.985Z,1015.10
2018-08-11T03:50:39.993Z,1015.07
2018-08-11T03:51:39.990Z,1015.07
2018-08-11T03:52:39.993Z,1015.11
2018-08-11T03:53:39.996Z,1015.09
2018-08-11T03:54:39.988Z,1015.09
2018-08-11T03:55:39.986Z,1015.06
2018-08-11T03:56:39.987Z,1015.09
2018-08-11T03:57:39.988Z,1015.10
2018-08-11T03:58:39.987Z,1015.11
2018-08-11T03:59:39.991Z,1015.09
2018-08-11T04:00:39.990Z,1015.10
2018-08-11T04:01:39.987Z,1015.09
2018-08-11T04:02:39.996Z,1015.07
2018-08-11T04:03:39.993Z,1015.05
2018-08-11T04:04:39.993Z,1015.06
2018-08-11T04:05:39.996Z,1015.05
2018-08-11T04:06:40.001Z,1015.05
2018-08-11T04:07:40.005Z,1015.06
2018-08-11T04:08:39.995Z,1015.07
2018-08-11T04:09:39.998Z,1015.04
2018-08-11T04:10:39.997Z,1015.04
2018-08-11T04:11:39.996Z,1015.02
2018-08-11T04:12:39.996Z,1015.02
2018-08-11T04:13:39.996Z,1015.03
2018-08-11T04:14:40.000Z,1015.01
2018-08-11T04:15:40.001Z,1014.99
2018-08-11T04:16:40.002Z,1014.96
2018-08-11T04:17:40.001Z,1014.94
2018-08-11T04:18:40.006Z,1014.93
2018-08-11T04:19:39.998Z,1014.94
2018-08-11T04:20:40.000Z,1014.93
2018-08-11T04:21:40.004Z,1014.91
2018-08-11T04:22:40.000Z,1014.95
2018-08-11T04:23:39.999Z,1014.92
2018-08-11T04:24:39.999Z,1014.95
2018-08-11T04:25:40.004Z,1014.91
2018-08-11T04:26:40.005Z,1014.91
2018-08-11T04:27:40.006Z,1014.93
2018-08-11T04:28:40.007Z,1014.90
2018-08-11T04:29:40.012Z,1014.94
2018-08-11T04:30:40.018Z,1014.92
2018-08-11T04:31:40.009Z,1014.91
2018-08-11T04:32:40.011Z,1014.96
2018-08-11T04:33:40.010Z,1014.89
2018-08-11T04:34:40.015Z,1014.93
2018-08-11T04:35:40.059Z,1014.88
2018-08-11T04:36:40.012Z,1014.88
2018-08-11T04:37:40.013Z,1014.91
2018-08-11T04:38:40.015Z,1014.86
2018-08-11T04:39:40.018Z,1014.85
2018-08-11T04:40:40.019Z,1014.82
2018-08-11T04:41:40.019Z,1014.86
2018-08-11T04:42:40.017Z,1014.87
2018-08-11T04:43:40.015Z,1014.82
2018-08-11T04:44:40.026Z,1014.76
2018-08-11T04:45:40.013Z,1014.78
2018-08-11T04:46:40.014Z,1014.76
2018-08-11T04:47:40.020Z,1014.73
2018-08-11T04:48:40.021Z,1014.78
2018-08-11T04:49:40.020Z,1014.79
2018-08-11T04:50:40.019Z,1014.77
2018-08-11T04:51:40.025Z,1014.80
2018-08-11T04:52:40.026Z,1014.79
2018-08-11T04:53:40.027Z,1014.92
2018-08-11T04:54:40.026Z,1014.84
2018-08-11T04:55:40.029Z,1014.78
2018-08-11T04:56:40.035Z,1014.83
2018-08-11T04:57:40.027Z,1014.81
2018-08-11T04:58:40.025Z,1014.85
2018-08-11T04:59:40.031Z,1014.85
2018-08-11T05:00:40.034Z,1014.87
2018-08-11T05:01:40.033Z,1014.85
2018-08-11T05:02:40.037Z,1014.76
2018-08-11T05:03:40.039Z,1014.81
2018-08-11T05:04:40.037Z,1014.79
2018-08-11T05:05:40.041Z,1014.82
2018-08-11T05:06:40.041Z,1014.83
2018-08-11T05:07:40.052Z,1014.86
2018-08-11T05:08:40.043Z,1014.93
2018-08-11T05:09:40.044Z,1014.95
2018-08-11T05:10:40.047Z,1014.97
2018-08-11T05:11:40.047Z,1014.99
2018-08-11T05:12:40.051Z,1014.91
2018-08-11T05:13:40.053Z,1014.86
2018-08-11T05:14:40.053Z,1014.81
2018-08-11T05:15:40.054Z,1014.83
2018-08-11T05:16:40.053Z,1014.86
2018-08-11T05:17:40.061Z,1014.83
2018-08-11T05:18:40.063Z,1014.85
2018-08-11T05:19:40.061Z,1014.86
2018-08-11T05:20:40.068Z,1014.82
2018-08-11T05:21:40.071Z,1014.84
2018-08-11T05:22:40.072Z,1014.88
2018-08-11T05:23:40.075Z,1014.87
2018-08-11T05:24:40.080Z,1014.88
2018-08-11T05:25:40.083Z,1014.88
2018-08-11T05:26:40.079Z,1014.85
2018-08-11T05:27:40.096Z,1014.86
2018-08-11T05:28:40.093Z,1014.83
2018-08-11T05:29:40.089Z,1014.84
2018-08-11T05:30:40.091Z,1014.86
2018-08-11T05:31:40.090Z,1014.83
2018-08-11T05:32:40.095Z,1014.84
2018-08-11T05:33:40.093Z,1014.82
2018-08-11T05:34:40.114Z,1014.79
2018-08-11T05:35:40.105Z,1014.87
2018-08-11T05:36:40.103Z,1014.89
2018-08-11T05:37:40.103Z,1014.92
2018-08-11T05:38:40.111Z,1014.90
2018-08-11T05:39:40.110Z,1014.92
2018-08-11T05:40:40.113Z,1014.90
2018-08-11T05:41:40.171Z,1014.92
2018-08-11T05:42:40.115Z,1014.89
2018-08-11T05:43:40.116Z,1014.92
2018-08-11T05:44:40.117Z,1014.90
2018-08-11T05:45:40.120Z,1014.91
2018-08-11T05:46:40.119Z,1014.92
2018-08-11T05:47:40.123Z,1014.88
2018-08-11T05:48:40.125Z,1014.90
2018-08-11T05:49:40.126Z,1014.88
2018-08-11T05:50:40.126Z,1014.91
2018-08-11T05:51:40.130Z,1014.85
2018-08-11T05:52:40.139Z,1014.88
2018-08-11T05:53:40.138Z,1014.85
2018-08-11T05:54:40.142Z,1014.86
2018-08-11T05:55:40.154Z,1014.87
2018-08-11T05:56:40.141Z,1014.86
2018-08-11T05:57:40.146Z,1014.85
2018-08-11T05:58:40.162Z,1014.86
2018-08-11T05:59:40.153Z,1014.85
2018-08-11T06:00:40.150Z,1014.89
2018-08-11T06:01:40.147Z,1014.86
2018-08-11T06:02:40.149Z,1014.88
2018-08-11T06:03:40.157Z,1014.89
2018-08-11T06:04:40.154Z,1014.87
2018-08-11T06:05:40.157Z,1014.92
2018-08-11T06:06:40.162Z,1014.88
2018-08-11T06:07:40.163Z,1014.86
2018-08-11T06:08:40.212Z,1014.88
2018-08-11T06:09:40.174Z,1014.85
2018-08-11T06:10:40.173Z,1014.85
2018-08-11T06:11:40.175Z,1014.88
2018-08-11T06:12:40.171Z,1014.86
2018-08-11T06:13:40.174Z,1014.87
2018-08-11T06:14:40.182Z,1014.89
2018-08-11T06:15:40.176Z,1014.81
2018-08-11T06:16:40.178Z,1014.85
2018-08-11T06:17:40.180Z,1014.85
2018-08-11T06:18:40.177Z,1014.87
2018-08-11T06:19:40.188Z,1014.88
2018-08-11T06:20:40.185Z,1014.89
2018-08-11T06:21:40.188Z,1014.90
2018-08-11T06:22:40.191Z,1014.90
2018-08-11T06:23:40.187Z,1014.95
2018-08-11T06:24:40.194Z,1014.92
2018-08-11T06:25:40.198Z,1014.93
2018-08-11T06:26:40.199Z,1014.91
2018-08-11T06:27:40.204Z,1014.93
2018-08-11T06:28:40.207Z,1014.87
2018-08-11T06:29:40.208Z,1014.89
2018-08-11T06:30:40.212Z,1014.94
2018-08-11T06:31:40.221Z,1014.93
2018-08-11T06:32:40.221Z,1014.91
2018-08-11T06:33:40.218Z,1014.85
2018-08-11T06:34:40.220Z,1014.93
2018-08-11T06:35:40.225Z,1014.91
2018-08-11T06:36:40.224Z,1014.92
2018-08-11T06:37:40.227Z,1014.94
2018-08-11T06:38:40.223Z,1014.94
2018-08-11T06:39:40.237Z,1014.89
2018-08-11T06:40:40.254Z,1014.87
2018-08-11T06:41:40.238Z,1014.87
2018-08-11T06:42:40.241Z,1014.89
2018-08-11T06:43:40.249Z,1014.91
2018-08-11T06:44:40.246Z,1014.87
2018-08-11T06:45:40.251Z,1014.90
2018-08-11T06:46:40.316Z,1014.86
2018-08-11T06:47:40.260Z,1014.89
2018-08-11T06:48:40.261Z,1014.96
2018-08-11T06:49:40.268Z,1014.95
2018-08-11T06:50:40.269Z,1014.93
2018-08-11T06:51:40.277Z,1014.93
2018-08-11T06:52:40.293Z,1014.94
2018-08-11T06:53:40.281Z,1014.97
2018-08-11T06:54:40.285Z,1014.99
2018-08-11T06:55:40.322Z,1015.00
2018-08-11T06:56:40.290Z,1014.99
2018-08-11T06:57:40.297Z,1014.98
2018-08-11T06:58:40.305Z,1015.03
2018-08-11T06:59:40.302Z,1015.01
2018-08-11T07:00:40.308Z,1015.01
2018-08-11T07:01:40.311Z,1014.97
2018-08-11T07:02:40.317Z,1014.98
2018-08-11T07:03:40.323Z,1014.93
2018-08-11T07:04:40.325Z,1014.95
2018-08-11T07:05:40.337Z,1014.98
2018-08-11T07:06:40.371Z,1015.00
2018-08-11T07:07:40.343Z,1014.95
2018-08-11T07:08:40.341Z,1014.99
2018-08-11T07:09:40.348Z,1014.99
2018-08-11T07:10:40.354Z,1014.96
2018-08-11T07:11:40.352Z,1014.94
2018-08-11T07:12:40.359Z,1014.95
2018-08-11T07:13:40.366Z,1014.98
2018-08-11T07:14:40.365Z,1015.01
2018-08-11T07:15:40.373Z,1014.98
2018-08-11T07:16:40.380Z,1014.98
2018-08-11T07:17:40.379Z,1014.97
2018-08-11T07:18:40.384Z,1014.97
2018-08-11T07:19:40.393Z,1014.98
2018-08-11T07:20:40.391Z,1014.98
2018-08-11T07:21:40.392Z,1014.98
2018-08-11T07:22:40.404Z,1015.00
2018-08-11T07:23:40.404Z,1015.01
2018-08-11T07:24:40.408Z,1015.06
2018-08-11T07:25:40.412Z,1014.98
2018-08-11T07:26:40.419Z,1015.00
2018-08-11T07:27:40.420Z,1015.03
2018-08-11T07:28:40.425Z,1015.02
2018-08-11T07:29:40.451Z,1015.00
2018-08-11T07:30:40.435Z,1014.96
2018-08-11T07:31:40.439Z,1014.96
2018-08-11T07:32:40.439Z,1014.96
2018-08-11T07:33:40.448Z,1015.06
2018-08-11T07:34:40.451Z,1015.04
2018-08-11T07:35:40.457Z,1015.05
2018-08-11T07:36:40.500Z,1015.02
2018-08-11T07:37:40.467Z,1014.97
2018-08-11T07:38:40.476Z,1014.98
2018-08-11T07:39:40.476Z,1015.03
2018-08-11T07:40:40.480Z,1015.05
2018-08-11T07:41:40.487Z,1015.05
2018-08-11T07:42:40.490Z,1015.10
2018-08-11T07:43:40.496Z,1015.05
2018-08-11T07:44:40.514Z,1015.12
2018-08-11T07:45:40.507Z,1015.12
2018-08-11T07:46:40.513Z,1015.11
2018-08-11T07:47:40.600Z,1015.14
2018-08-11T07:48:40.524Z,1015.15
2018-08-11T07:49:40.531Z,1015.18
2018-08-11T07:50:40.538Z,1015.12
2018-08-11T07:51:40.544Z,1015.16
2018-08-11T07:52:40.551Z,1015.15
2018-08-11T07:53:40.553Z,1015.11
2018-08-11T07:54:40.560Z,1015.12
2018-08-11T07:55:40.564Z,1015.11
2018-08-11T07:56:40.570Z,1015.12
2018-08-11T07:57:40.579Z,1015.17
2018-08-11T07:58:40.582Z,1015.16
2018-08-11T07:59:40.589Z,1015.21
2018-08-11T08:00:40.591Z,1015.19
2018-08-11T08:01:40.595Z,1015.18
2018-08-11T08:02:40.602Z,1015.24
2018-08-11T08:03:40.608Z,1015.25
2018-08-11T08:04:40.660Z,1015.26
2018-08-11T08:05:40.617Z,1015.27
2018-08-11T08:06:40.622Z,1015.28
2018-08-11T08:07:40.626Z,1015.27
2018-08-11T08:08:40.627Z,1015.23
2018-08-11T08:09:40.638Z,1015.25
2018-08-11T08:10:40.646Z,1015.28
2018-08-11T08:11:40.645Z,1015.24
2018-08-11T08:12:40.648Z,1015.28
2018-08-11T08:13:40.664Z,1015.30
2018-08-11T08:14:40.659Z,1015.31
2018-08-11T08:15:40.662Z,1015.33
2018-08-11T08:16:40.668Z,1015.29
2018-08-11T08:17:40.671Z,1015.27
2018-08-11T08:18:40.674Z,1015.27
2018-08-11T08:19:40.679Z,1015.35
2018-08-11T08:20:40.683Z,1015.29
2018-08-11T08:21:40.688Z,1015.31
2018-08-11T08:22:40.691Z,1015.26
2018-08-11T08:23:40.698Z,1015.40
2018-08-11T08:24:40.701Z,1015.31
2018-08-11T08:25:40.706Z,1015.40
2018-08-11T08:26:40.750Z,1015.44
2018-08-11T08:27:40.712Z,1015.49
2018-08-11T08:28:40.716Z,1015.46
2018-08-11T08:29:40.719Z,1015.43
2018-08-11T08:30:40.719Z,1015.54
2018-08-11T08:31:40.728Z,1015.52
2018-08-11T08:32:40.730Z,1015.53
2018-08-11T08:33:40.736Z,1015.52
2018-08-11T08:34:40.740Z,1015.44
2018-08-11T08:35:40.747Z,1015.37
2018-08-11T08:36:40.750Z,1015.45
2018-08-11T08:37:40.749Z,1015.37
2018-08-11T08:38:40.761Z,1015.41
2018-08-11T08:39:40.762Z,1015.40
2018-08-11T08:40:40.763Z,1015.49
2018-08-11T08:41:40.766Z,1015.50
2018-08-11T08:42:40.769Z,1015.44
2018-08-11T08:43:40.773Z,1015.63
2018-08-11T08:44:40.777Z,1015.51
2018-08-11T08:45:40.779Z,1015.52
2018-08-11T08:46:40.781Z,1015.57
2018-08-11T08:47:40.789Z,1015.50
2018-08-11T08:48:40.793Z,1015.48
2018-08-11T08:49:40.794Z,1015.55
2018-08-11T08:50:40.801Z,1015.61
2018-08-11T08:51:40.805Z,1015.58
2018-08-11T08:52:40.818Z,1015.56
2018-08-11T08:53:40.809Z,1015.58
2018-08-11T08:54:40.817Z,1015.59
2018-08-11T08:55:40.819Z,1015.54
2018-08-11T08:56:40.821Z,1015.51
2018-08-11T08:57:40.827Z,1015.53
2018-08-11T08:58:40.833Z,1015.51
2018-08-11T08:59:40.836Z,1015.50
2018-08-11T09:00:40.839Z,1015.44
2018-08-11T09:01:40.844Z,1015.45
2018-08-11T09:02:40.848Z,1015.50
2018-08-11T09:03:40.852Z,1015.57
2018-08-11T09:04:40.865Z,1015.54
2018-08-11T09:05:40.861Z,1015.54
2018-08-11T09:06:40.865Z,1015.58
2018-08-11T09:07:40.867Z,1015.54
2018-08-11T09:08:40.875Z,1015.56
2018-08-11T09:09:40.877Z,1015.56
2018-08-11T09:10:40.883Z,1015.63
2018-08-11T09:11:40.884Z,1015.59
2018-08-11T09:12:40.886Z,1015.64
2018-08-11T09:13:40.890Z,1015.63
2018-08-11T09:14:40.893Z,1015.66
2018-08-11T09:15:40.897Z,1015.61
2018-08-11T09:16:40.904Z,1015.65
2018-08-11T09:17:40.901Z,1015.64
2018-08-11T09:18:40.920Z,1015.65
2018-08-11T09:19:40.913Z,1015.66
2018-08-11T09:20:40.924Z,1015.62
2018-08-11T09:21:40.933Z,1015.67
2018-08-11T09:22:40.920Z,1015.72
2018-08-11T09:23:40.919Z,1015.71
2018-08-11T09:24:40.928Z,1015.74
2018-08-11T09:25:40.930Z,1015.76
2018-08-11T09:26:40.930Z,1015.73
2018-08-11T09:27:40.942Z,1015.70
2018-08-11T09:28:40.946Z,1015.71
2018-08-11T09:29:40.943Z,1015.72
2018-08-11T09:30:40.947Z,1015.71
2018-08-11T09:31:40.949Z,1015.70
2018-08-11T09:32:40.954Z,1015.77
2018-08-11T09:33:40.958Z,1015.74
2018-08-11T09:34:40.959Z,1015.70
2018-08-11T09:35:40.968Z,1015.72
2018-08-11T09:36:40.963Z,1015.65
2018-08-11T09:37:40.972Z,1015.73
2018-08-11T09:38:40.978Z,1015.70
2018-08-11T09:39:40.979Z,1015.71
2018-08-11T09:40:40.978Z,1015.66
2018-08-11T09:41:40.989Z,1015.76
2018-08-11T09:42:40.990Z,1015.74
2018-08-11T09:43:40.991Z,1015.75
2018-08-11T09:44:40.996Z,1015.71
2018-08-11T09:45:41.052Z,1015.69
2018-08-11T09:46:41.000Z,1015.69
2018-08-11T09:47:41.006Z,1015.74
2018-08-11T09:48:41.009Z,1015.70
2018-08-11T09:49:41.015Z,1015.66
2018-08-11T09:50:41.019Z,1015.68
2018-08-11T09:51:41.015Z,1015.71
2018-08-11T09:52:41.016Z,1015.71
2018-08-11T09:53:41.027Z,1015.70
2018-08-11T09:54:41.026Z,1015.74
2018-08-11T09:55:41.030Z,1015.73
2018-08-11T09:56:41.034Z,1015.74
2018-08-11T09:57:41.037Z,1015.70
2018-08-11T09:58:41.079Z,1015.71
2018-08-11T09:59:41.043Z,1015.70
2018-08-11T10:00:41.049Z,1015.67
2018-08-11T10:01:41.055Z,1015.66
2018-08-11T10:02:41.054Z,1015.61
2018-08-11T10:03:41.061Z,1015.67
2018-08-11T10:04:41.064Z,1015.65
2018-08-11T10:05:41.067Z,1015.65
2018-08-11T10:06:41.088Z,1015.61
2018-08-11T10:07:42.578Z,1015.61
2018-08-11T10:08:41.075Z,1015.57
2018-08-11T10:09:41.078Z,1015.64
2018-08-11T10:10:41.190Z,1015.61
2018-08-11T10:11:41.085Z,1015.62
2018-08-11T10:12:41.089Z,1015.59
2018-08-11T10:13:41.095Z,1015.61
2018-08-11T10:14:41.095Z,1015.62
2018-08-11T10:15:41.099Z,1015.62
2018-08-11T10:16:41.101Z,1015.55
2018-08-11T10:17:41.106Z,1015.54
2018-08-11T10:18:41.117Z,1015.55
2018-08-11T10:19:41.108Z,1015.50
2018-08-11T10:20:43.082Z,1015.50
2018-08-11T10:21:41.119Z,1015.46
2018-08-11T10:22:41.121Z,1015.50
2018-08-11T10:23:41.125Z,1015.42
2018-08-11T10:24:41.128Z,1015.38
2018-08-11T10:25:41.131Z,1015.41
2018-08-11T10:26:41.144Z,1015.41
2018-08-11T10:27:41.143Z,1015.46
2018-08-11T10:28:41.146Z,1015.40
2018-08-11T10:29:41.147Z,1015.42
2018-08-11T10:30:41.149Z,1015.38
2018-08-11T10:31:41.159Z,1015.42
2018-08-11T10:32:41.160Z,1015.44
2018-08-11T10:33:41.162Z,1015.44
2018-08-11T10:34:41.163Z,1015.45
2018-08-11T10:35:41.172Z,1015.47
2018-08-11T10:36:41.173Z,1015.52
2018-08-11T10:37:41.178Z,1015.54
2018-08-11T10:38:41.177Z,1015.52
2018-08-11T10:39:41.186Z,1015.59
2018-08-11T10:40:41.184Z,1015.58
2018-08-11T10:41:41.189Z,1015.65
2018-08-11T10:42:41.192Z,1015.62
2018-08-11T10:43:41.196Z,1015.62
2018-08-11T10:44:41.194Z,1015.64
2018-08-11T10:45:41.207Z,1015.64
2018-08-11T10:46:41.209Z,1015.64
2018-08-11T10:47:41.209Z,1015.62
2018-08-11T10:48:41.213Z,1015.62
2018-08-11T10:49:41.217Z,1015.69
2018-08-11T10:50:41.225Z,1015.68
2018-08-11T10:51:41.232Z,1015.69
2018-08-11T10:52:41.223Z,1015.58
2018-08-11T10:53:41.228Z,1015.65
2018-08-11T10:54:41.232Z,1015.70
2018-08-11T10:55:41.236Z,1015.75
2018-08-11T10:56:41.236Z,1015.69
2018-08-11T10:57:41.245Z,1015.74
2018-08-11T10:58:41.248Z,1015.72
2018-08-11T10:59:41.250Z,1015.72
2018-08-11T11:00:41.253Z,1015.75
2018-08-11T11:01:41.255Z,1015.78
2018-08-11T11:02:41.261Z,1015.81
2018-08-11T11:03:41.266Z,1015.76
2018-08-11T11:04:41.268Z,1015.79
2018-08-11T11:05:41.269Z,1015.72
2018-08-11T11:06:41.270Z,1015.69
2018-08-11T11:07:41.278Z,1015.65
2018-08-11T11:08:41.277Z,1015.62
2018-08-11T11:09:41.281Z,1015.65
2018-08-11T11:10:41.285Z,1015.69
2018-08-11T11:11:41.287Z,1015.59
2018-08-11T11:12:41.286Z,1015.61
2018-08-11T11:13:41.291Z,1015.59
2018-08-11T11:14:41.295Z,1015.57
2018-08-11T11:15:41.296Z,1015.56
2018-08-11T11:16:41.299Z,1015.57
2018-08-11T11:17:41.302Z,1015.58
2018-08-11T11:18:41.308Z,1015.51
2018-08-11T11:19:41.310Z,1015.48
2018-08-11T11:20:41.316Z,1015.55
2018-08-11T11:21:41.313Z,1015.53
2018-08-11T11:22:41.363Z,1015.52
2018-08-11T11:23:41.326Z,1015.47
2018-08-11T11:24:41.323Z,1015.55
2018-08-11T11:25:41.328Z,1015.57
2018-08-11T11:26:41.330Z,1015.56
2018-08-11T11:27:41.329Z,1015.64
2018-08-11T11:28:41.333Z,1015.52
2018-08-11T11:29:41.345Z,1015.52
2018-08-11T11:30:41.343Z,1015.51
2018-08-11T11:31:41.343Z,1015.51
2018-08-11T11:32:41.350Z,1015.45
2018-08-11T11:33:41.354Z,1015.47
2018-08-11T11:34:41.352Z,1015.48
2018-08-11T11:35:41.357Z,1015.45
2018-08-11T11:36:41.358Z,1015.45
2018-08-11T11:37:41.360Z,1015.41
2018-08-11T11:38:41.367Z,1015.46
2018-08-11T11:39:41.369Z,1015.39
2018-08-11T11:40:41.371Z,1015.36
2018-08-11T11:41:41.375Z,1015.41
2018-08-11T11:42:41.415Z,1015.34
2018-08-11T11:43:41.398Z,1015.38
2018-08-11T11:44:41.380Z,1015.38
2018-08-11T11:45:41.385Z,1015.34
2018-08-11T11:46:41.387Z,1015.41
2018-08-11T11:47:41.399Z,1015.37
2018-08-11T11:48:41.411Z,1015.42
2018-08-11T11:49:41.397Z,1015.46
2018-08-11T11:50:41.400Z,1015.40
2018-08-11T11:51:41.402Z,1015.41
2018-08-11T11:52:41.407Z,1015.43
2018-08-11T11:53:41.404Z,1015.37
2018-08-11T11:54:41.409Z,1015.53
2018-08-11T11:55:41.414Z,1015.50
2018-08-11T11:56:41.420Z,1015.50
2018-08-11T11:57:41.420Z,1015.49
2018-08-11T11:58:41.420Z,1015.44
2018-08-11T11:59:41.425Z,1015.37
2018-08-11T12:00:41.427Z,1015.40
2018-08-11T12:01:41.434Z,1015.36
2018-08-11T12:02:41.433Z,1015.35
2018-08-11T12:03:41.443Z,1015.35
2018-08-11T12:04:41.439Z,1015.33
2018-08-11T12:05:41.450Z,1015.34